Time;durP1;ratioP1;P1;durP2;ratioP2;P2;SDS_P1;SDS_P2;PMS_P1;PMS_P2;Temp;Humidity;BMP_temperature;BMP_pressure;BME280_temperature;BME280_humidity;BME280_pressure;Samples;Min_cycle;Max_cycle;Signal;HPM_P1;HPM_P2
2021/04/22 00:00:14;;;;;;;17.43;10.87;;;;;;;10.59;49.72;95481.34;5070189;28;20445;-70
2021/04/22 00:02:41;;;;;;;16.37;11.20;;;;;;;10.51;51.08;95481.72;5070529;28;20465;-69
2021/04/22 00:05:11;;;;;;;19.63;12.23;;;;;;;10.52;50.51;95482.53;5071104;28;20441;-68
2021/04/22 00:07:38;;;;;;;17.73;11.77;;;;;;;10.44;51.44;95494.19;5070639;28;20879;-71
2021/04/22 00:10:12;;;;;;;18.53;12.33;;;;;;;10.43;50.70;95484.78;5071099;28;20477;-68
2021/04/22 00:12:38;;;;;;;22.67;13.23;;;;;;;10.62;50.71;95477.44;5071343;28;20827;-69
2021/04/22 00:15:12;;;;;;;23.93;12.73;;;;;;;10.50;51.02;95474.09;5071328;28;20429;-67
2021/04/22 00:17:38;;;;;;;22.00;14.27;;;;;;;10.59;50.20;95480.53;5070601;28;20444;-70
2021/04/22 00:20:05;;;;;;;21.83;13.07;;;;;;;10.46;51.11;95480.84;5070837;28;20430;-68
2021/04/22 00:22:32;;;;;;;18.57;12.03;;;;;;;10.44;50.92;95481.09;5069731;28;20482;-68
2021/04/22 00:24:58;;;;;;;12.17;8.87;;;;;;;10.49;50.31;95468.06;5070581;28;20431;-68
2021/04/22 00:27:25;;;;;;;13.37;8.03;;;;;;;10.52;49.93;95467.59;5070580;28;20453;-69
2021/04/22 00:29:51;;;;;;;9.10;6.67;;;;;;;10.53;49.25;95471.81;5070340;28;20492;-69
2021/04/22 00:32:18;;;;;;;9.63;7.37;;;;;;;10.27;49.75;95448.09;5070008;28;20442;-69
2021/04/22 00:34:44;;;;;;;8.73;5.90;;;;;;;10.40;49.76;95474.75;5070355;28;20454;-69
2021/04/22 00:37:10;;;;;;;7.73;5.90;;;;;;;9.87;50.45;95479.66;5070328;28;20828;-68
2021/04/22 00:39:38;;;;;;;11.13;6.70;;;;;;;9.74;51.27;95487.78;5070544;28;20442;-67
2021/04/22 00:42:05;;;;;;;7.63;6.07;;;;;;;9.96;50.53;95483.47;5069457;28;20867;-70
2021/04/22 00:44:50;;;;;;;10.70;6.40;;;;;;;9.96;50.63;95483.47;5070024;28;20444;-70
2021/04/22 00:47:20;;;;;;;9.20;6.60;;;;;;;9.87;51.17;95483.03;5069660;28;20528;-70
2021/04/22 00:49:48;;;;;;;8.53;6.20;;;;;;;9.89;51.12;95474.97;5070246;28;20481;-69
2021/04/22 00:52:14;;;;;;;9.00;6.30;;;;;;;9.89;51.07;95480.22;5070112;28;20434;-70
2021/04/22 00:54:41;;;;;;;10.23;6.37;;;;;;;9.85;50.94;95481.72;5069919;28;20446;-69
2021/04/22 00:57:09;;;;;;;10.30;5.57;;;;;;;9.91;51.26;95480.75;5068736;28;20445;-68
2021/04/22 00:59:35;;;;;;;7.83;5.57;;;;;;;10.03;50.41;95484.09;5070199;28;20430;-69
2021/04/22 01:02:06;;;;;;;11.37;6.00;;;;;;;9.96;50.56;95484.25;5069777;28;20478;-69
2021/04/22 01:04:33;;;;;;;10.33;5.90;;;;;;;9.93;50.73;95499.63;5069906;28;20442;-67
2021/04/22 01:07:00;;;;;;;7.73;6.10;;;;;;;9.99;50.08;95498.69;5069944;28;20809;-68
2021/04/22 01:09:26;;;;;;;10.80;6.13;;;;;;;9.91;50.63;95488.59;5069827;28;20514;-68
2021/04/22 01:11:54;;;;;;;8.87;6.03;;;;;;;9.97;50.78;95495.53;5069338;28;21185;-70
2021/04/22 01:14:22;;;;;;;7.83;5.70;;;;;;;10.02;50.33;95499.00;5069827;28;20814;-68
2021/04/22 01:16:49;;;;;;;7.43;5.50;;;;;;;9.86;50.79;95493.75;5069292;28;20465;-68
2021/04/22 01:19:16;;;;;;;11.43;6.57;;;;;;;9.55;51.17;95494.25;5070602;28;20446;-69
2021/04/22 01:21:43;;;;;;;9.37;6.07;;;;;;;9.60;51.73;95489.13;5071522;28;20481;-68
2021/04/22 01:24:10;;;;;;;8.57;6.40;;;;;;;9.55;51.25;95495.03;5071231;28;20477;-68
2021/04/22 01:26:37;;;;;;;8.90;6.20;;;;;;;9.50;52.13;95499.38;5070600;28;20892;-68
2021/04/22 01:29:05;;;;;;;7.97;5.90;;;;;;;9.76;51.19;95489.13;5070323;28;20999;-68
2021/04/22 01:31:33;;;;;;;10.10;6.40;;;;;;;9.71;50.74;95499.50;5071988;28;20817;-69
2021/04/22 01:34:06;;;;;;;8.93;5.93;;;;;;;9.53;51.78;95502.34;5070076;28;20450;-69
2021/04/22 01:36:39;;;;;;;7.77;5.97;;;;;;;9.44;51.90;95495.88;5069846;28;20441;-70
2021/04/22 01:39:09;;;;;;;11.13;6.30;;;;;;;8.93;53.30;95499.31;5069770;28;20449;-68
2021/04/22 01:41:36;;;;;;;12.40;6.77;;;;;;;8.99;53.12;95498.41;5069514;28;20461;-72
2021/04/22 01:44:04;;;;;;;9.67;6.50;;;;;;;9.21;52.44;95496.75;5070356;28;20418;-69
2021/04/22 01:46:30;;;;;;;9.53;7.20;;;;;;;9.08;53.41;95494.41;5068475;28;20442;-68
2021/04/22 01:48:57;;;;;;;9.83;7.03;;;;;;;9.23;52.39;95493.13;5069342;28;20541;-67
2021/04/22 01:51:24;;;;;;;10.53;7.40;;;;;;;8.90;53.82;95499.00;5069345;28;20970;-68
2021/04/22 01:53:51;;;;;;;10.83;7.83;;;;;;;8.78;54.95;95501.59;5069352;28;20453;-68
2021/04/22 01:56:18;;;;;;;11.40;7.93;;;;;;;8.82;54.14;95499.34;5069450;28;20438;-67
2021/04/22 01:58:45;;;;;;;10.50;7.27;;;;;;;9.03;54.39;95498.75;5069650;28;20434;-68
2021/04/22 02:01:12;;;;;;;12.20;7.93;;;;;;;8.81;54.32;95495.91;5069044;28;20460;-68
2021/04/22 02:03:39;;;;;;;13.40;7.93;;;;;;;8.01;57.15;95494.09;5068944;28;20486;-68
2021/04/22 02:06:07;;;;;;;14.17;7.93;;;;;;;8.54;55.44;95504.47;5069335;28;20437;-68
2021/04/22 02:08:35;;;;;;;15.90;8.37;;;;;;;7.82;56.84;95477.69;5068583;28;20438;-70
2021/04/22 02:11:03;;;;;;;15.80;8.73;;;;;;;8.41;55.48;95500.25;5068951;28;20564;-68
2021/04/22 02:13:30;;;;;;;13.03;7.90;;;;;;;8.57;55.71;95496.97;5070862;28;20513;-68
2021/04/22 02:15:57;;;;;;;14.47;8.17;;;;;;;8.64;55.78;95502.88;5069262;28;20537;-68
2021/04/22 02:18:24;;;;;;;11.50;7.83;;;;;;;8.48;55.03;95489.72;5067658;28;20545;-69
2021/04/22 02:20:52;;;;;;;18.03;8.57;;;;;;;8.55;55.74;95506.06;5069593;28;20438;-70
2021/04/22 02:23:21;;;;;;;13.90;8.27;;;;;;;8.50;55.88;95498.91;5071593;28;20473;-69
2021/04/22 02:25:48;;;;;;;13.73;8.77;;;;;;;8.53;55.31;95503.69;5072893;28;20443;-68
2021/04/22 02:28:15;;;;;;;15.73;10.10;;;;;;;8.63;55.94;95505.72;5072406;28;20529;-67
2021/04/22 02:30:44;;;;;;;25.90;13.27;;;;;;;8.78;55.41;95506.03;5072657;28;20464;-67
2021/04/22 02:33:13;;;;;;;24.07;14.70;;;;;;;8.67;55.99;95512.88;5072366;28;20441;-68
2021/04/22 02:35:42;;;;;;;31.10;17.50;;;;;;;8.58;56.79;95511.63;5072793;28;20434;-68
2021/04/22 02:38:12;;;;;;;29.50;16.30;;;;;;;8.51;56.49;95487.44;5072345;28;20441;-67
2021/04/22 02:40:40;;;;;;;30.40;16.87;;;;;;;8.63;56.77;95503.88;5072385;28;20455;-68
2021/04/22 02:43:10;;;;;;;27.83;16.63;;;;;;;8.70;56.97;95511.63;5072557;28;20967;-69
2021/04/22 02:45:40;;;;;;;25.10;14.37;;;;;;;8.66;56.33;95513.91;5071528;28;20529;-68
2021/04/22 02:48:06;;;;;;;27.37;14.10;;;;;;;8.48;56.55;95500.97;5071874;28;20449;-68
2021/04/22 02:50:36;;;;;;;21.07;13.07;;;;;;;8.42;56.25;95517.53;5072420;28;20464;-68
2021/04/22 02:53:06;;;;;;;20.23;10.50;;;;;;;8.47;55.98;95515.03;5071818;28;20437;-68
2021/04/22 02:55:32;;;;;;;19.03;10.83;;;;;;;8.00;57.16;95515.97;5072363;28;20477;-68
2021/04/22 02:58:20;;;;;;;21.73;10.80;;;;;;;7.65;57.94;95522.88;5071816;28;20457;-68
2021/04/22 03:00:48;;;;;;;20.10;11.18;;;;;;;7.72;58.41;95527.00;5072205;28;20467;-69
2021/04/22 03:03:14;;;;;;;19.13;10.43;;;;;;;7.69;58.45;95526.66;5070336;28;20251;-69
2021/04/22 03:05:42;;;;;;;19.73;10.93;;;;;;;7.73;58.21;95522.59;5072365;28;20189;-67
2021/04/22 03:08:08;;;;;;;22.33;11.35;;;;;;;7.79;57.91;95511.28;5072457;28;20306;-67
2021/04/22 03:10:36;;;;;;;27.02;11.40;;;;;;;7.98;57.59;95525.81;5071705;28;20258;-68
2021/04/22 03:13:04;;;;;;;20.67;11.98;;;;;;;7.92;57.22;95527.50;5071794;28;20200;-69
2021/04/22 03:15:32;;;;;;;28.17;12.15;;;;;;;7.52;58.18;95499.63;5071125;28;20210;-68
2021/04/22 03:18:00;;;;;;;18.70;11.77;;;;;;;7.75;58.42;95518.75;5074257;28;20191;-68
2021/04/22 03:20:26;;;;;;;18.95;11.18;;;;;;;8.01;57.32;95520.19;5079534;28;20613;-69
2021/04/22 03:22:53;;;;;;;21.17;11.55;;;;;;;8.04;56.50;95527.56;5074224;28;20602;-67
2021/04/22 03:25:23;;;;;;;17.57;11.13;;;;;;;8.18;56.36;95523.72;5072978;28;20188;-68
2021/04/22 03:27:50;;;;;;;25.75;11.27;;;;;;;7.81;57.47;95527.50;5072869;28;20444;-68
2021/04/22 03:30:22;;;;;;;17.10;11.70;;;;;;;7.88;57.38;95525.59;5073073;28;20198;-68
2021/04/22 03:32:48;;;;;;;21.90;11.27;;;;;;;7.89;56.97;95541.00;5073547;28;20433;-69
2021/04/22 03:35:15;;;;;;;19.42;11.40;;;;;;;7.85;57.74;95536.44;5071495;28;20472;-67
2021/04/22 03:37:41;;;;;;;19.13;11.27;;;;;;;7.89;57.40;95537.59;5070182;28;20563;-67
2021/04/22 03:40:10;;;;;;;17.05;11.27;;;;;;;7.96;57.04;95533.06;5071625;28;20437;-68
2021/04/22 03:42:37;;;;;;;18.88;11.52;;;;;;;7.71;57.38;95520.19;5071453;28;20765;-68
2021/04/22 03:45:06;;;;;;;18.52;11.60;;;;;;;7.94;57.58;95542.94;5072022;28;20184;-68
2021/04/22 03:47:33;;;;;;;23.58;12.50;;;;;;;8.01;57.27;95539.22;5071097;28;20192;-69
2021/04/22 03:49:59;;;;;;;20.27;12.30;;;;;;;8.13;56.98;95542.66;5070887;28;20241;-70
2021/04/22 03:52:26;;;;;;;24.67;12.75;;;;;;;8.02;57.16;95540.81;5070917;28;20968;-68
2021/04/22 03:54:53;;;;;;;24.08;12.55;;;;;;;8.02;56.67;95543.44;5071268;28;20198;-69
2021/04/22 03:57:19;;;;;;;29.23;13.07;;;;;;;8.04;57.18;95551.03;5070597;28;20215;-69
2021/04/22 03:59:46;;;;;;;22.30;12.93;;;;;;;7.99;57.67;95543.09;5071375;28;20449;-68
2021/04/22 04:02:12;;;;;;;26.97;13.23;;;;;;;7.89;57.18;95553.25;5070384;28;20478;-69
2021/04/22 04:04:38;;;;;;;25.23;13.30;;;;;;;7.85;57.43;95541.66;5071203;28;20446;-69
2021/04/22 04:07:05;;;;;;;24.70;12.85;;;;;;;8.06;57.29;95560.22;5070983;28;20200;-69
2021/04/22 04:09:31;;;;;;;21.90;12.70;;;;;;;7.86;57.96;95548.50;5071122;28;20226;-69
2021/04/22 04:11:58;;;;;;;22.07;13.20;;;;;;;7.96;57.77;95554.75;5069047;28;20549;-68
2021/04/22 04:14:24;;;;;;;24.43;13.30;;;;;;;8.06;57.86;95555.00;5071065;28;20438;-68
2021/04/22 04:16:51;;;;;;;27.13;13.63;;;;;;;7.89;57.73;95540.22;5060465;28;20963;-68
2021/04/22 04:19:18;;;;;;;24.90;14.43;;;;;;;8.00;58.48;95565.53;5060170;28;20184;-68
2021/04/22 04:21:46;;;;;;;24.30;15.63;;;;;;;8.01;58.18;95567.16;5070730;28;20740;-69
2021/04/22 04:24:12;;;;;;;29.63;17.20;;;;;;;8.05;58.17;95574.31;5067040;28;20442;-70
2021/04/22 04:26:39;;;;;;;26.50;18.10;;;;;;;8.16;57.96;95580.56;5071844;28;20449;-69
2021/04/22 04:29:05;;;;;;;33.03;18.47;;;;;;;8.16;57.70;95576.16;5071245;28;20426;-69
2021/04/22 04:31:31;;;;;;;31.88;17.70;;;;;;;8.19;57.88;95588.75;5070208;28;20790;-68
2021/04/22 04:33:59;;;;;;;27.63;16.50;;;;;;;8.23;57.95;95580.47;5070909;28;20569;-68
2021/04/22 04:36:25;;;;;;;24.77;17.02;;;;;;;8.33;57.84;95586.78;5070383;28;21058;-67
2021/04/22 04:38:52;;;;;;;27.07;17.27;;;;;;;8.23;58.53;95586.47;5070332;28;20294;-67
2021/04/22 04:41:18;;;;;;;29.55;17.70;;;;;;;8.31;57.54;95567.91;5085879;28;20438;-68
2021/04/22 04:43:44;;;;;;;31.00;17.73;;;;;;;8.48;57.68;95589.75;5070401;28;20701;-69
2021/04/22 04:46:14;;;;;;;27.35;17.15;;;;;;;8.48;58.07;95594.97;5069863;28;20524;-68
2021/04/22 04:48:40;;;;;;;31.27;17.50;;;;;;;8.46;57.94;95591.78;5070715;28;20669;-68
2021/04/22 04:51:07;;;;;;;27.93;16.73;;;;;;;8.58;58.05;95595.22;5064672;28;20482;-68
2021/04/22 04:53:34;;;;;;;28.50;16.60;;;;;;;8.59;57.55;95607.25;5050496;28;20435;-67
2021/04/22 04:56:00;;;;;;;26.90;17.03;;;;;;;8.56;58.25;95607.69;5050534;28;20450;-68
2021/04/22 04:58:33;;;;;;;26.67;15.67;;;;;;;8.57;57.78;95585.78;5051653;28;20492;-68
2021/04/22 05:00:59;;;;;;;24.97;16.27;;;;;;;8.83;57.54;95608.84;5052140;28;20439;-67
2021/04/22 05:03:26;;;;;;;24.43;15.07;;;;;;;8.93;57.13;95598.66;5050215;28;20479;-69
2021/04/22 05:05:52;;;;;;;26.83;14.43;;;;;;;9.11;56.09;95606.38;5050701;28;20553;-67
2021/04/22 05:08:19;;;;;;;25.80;14.87;;;;;;;9.22;55.87;95612.59;5049936;28;20465;-65
2021/04/22 05:10:45;;;;;;;32.20;16.70;;;;;;;9.31;55.68;95606.00;5050016;28;20474;-69
2021/04/22 05:13:12;;;;;;;51.30;33.97;;;;;;;9.30;55.95;95614.06;5068595;28;20434;-67
2021/04/22 05:15:38;;;;;;;30.80;12.83;;;;;;;9.49;56.11;95618.16;5069899;28;20444;-72
2021/04/22 05:18:04;;;;;;;27.03;12.63;;;;;;;9.63;55.58;95609.81;5069996;28;20525;-69
2021/04/22 05:20:31;;;;;;;25.53;13.63;;;;;;;9.51;54.78;95600.38;5070071;28;20440;-68
2021/04/22 05:22:57;;;;;;;26.27;12.20;;;;;;;9.65;55.36;95612.19;5069427;28;20473;-65
2021/04/22 05:25:24;;;;;;;25.13;13.10;;;;;;;9.84;55.71;95606.53;5068186;28;20449;-64
2021/04/22 05:27:50;;;;;;;21.07;13.53;;;;;;;10.02;55.45;95613.41;5056697;28;20488;-64
2021/04/22 05:30:17;;;;;;;34.17;14.67;;;;;;;10.03;55.47;95620.25;5057938;28;20530;-65
2021/04/22 05:32:43;;;;;;;23.57;14.23;;;;;;;10.16;54.36;95620.00;5051953;28;20457;-64
2021/04/22 05:35:11;;;;;;;26.10;14.47;;;;;;;10.05;54.89;95615.59;5049407;28;20488;-65
2021/04/22 05:37:52;;;;;;;24.33;14.13;;;;;;;10.22;54.64;95624.28;5050117;28;20936;-64
2021/04/22 05:40:20;;;;;;;24.10;12.30;;;;;;;10.20;55.11;95621.09;5066140;28;20467;-65
2021/04/22 05:42:47;;;;;;;23.57;12.87;;;;;;;10.08;55.38;95609.88;5069099;28;21007;-63
2021/04/22 05:45:15;;;;;;;23.80;13.13;;;;;;;10.28;55.34;95623.34;5068760;28;20422;-64
2021/04/22 05:47:41;;;;;;;22.07;13.03;;;;;;;10.38;54.79;95626.16;5051899;28;20450;-64
2021/04/22 05:50:08;;;;;;;24.80;13.27;;;;;;;10.51;54.25;95623.22;5049535;28;20435;-64
2021/04/22 05:52:35;;;;;;;17.93;13.10;;;;;;;10.51;54.63;95619.81;5049834;28;20453;-64
2021/04/22 05:55:03;;;;;;;25.50;13.87;;;;;;;10.67;55.11;95619.03;5049471;28;20770;-65
2021/04/22 05:57:30;;;;;;;95.90;70.80;;;;;;;10.62;56.60;95619.72;5051308;28;20443;-64
2021/04/22 05:59:56;;;;;;;66.07;43.93;;;;;;;10.81;56.21;95615.06;5052961;28;20891;-62
2021/04/22 06:02:23;;;;;;;24.47;14.10;;;;;;;10.95;55.17;95617.13;5053194;28;21012;-65
2021/04/22 06:04:50;;;;;;;31.23;14.47;;;;;;;10.91;54.89;95610.75;5053230;28;20451;-65
2021/04/22 06:07:16;;;;;;;19.77;14.33;;;;;;;11.13;54.56;95614.22;5052604;28;20430;-65
2021/04/22 06:09:43;;;;;;;21.90;13.87;;;;;;;11.08;54.26;95605.50;5052538;28;20470;-65
2021/04/22 06:12:10;;;;;;;24.83;14.07;;;;;;;11.16;53.83;95611.16;5050318;28;20435;-67
2021/04/22 06:14:36;;;;;;;19.80;13.37;;;;;;;11.22;53.75;95610.16;5050132;28;20451;-64
2021/04/22 06:17:03;;;;;;;19.27;12.77;;;;;;;11.32;53.71;95608.72;5049876;28;20809;-65
2021/04/22 06:19:29;;;;;;;18.07;12.20;;;;;;;11.21;52.99;95607.78;5051276;28;20438;-65
2021/04/22 06:21:56;;;;;;;21.77;12.77;;;;;;;11.29;53.19;95614.44;5053794;28;20431;-65
2021/04/22 06:24:22;;;;;;;19.17;12.73;;;;;;;11.47;53.05;95611.53;5054939;28;20954;-66
2021/04/22 06:26:49;;;;;;;20.43;12.67;;;;;;;11.27;52.96;95611.28;5052140;28;20446;-65
2021/04/22 06:29:16;;;;;;;16.83;11.53;;;;;;;11.43;50.73;95610.44;5052561;28;21091;-65
2021/04/22 06:31:44;;;;;;;18.17;11.37;;;;;;;11.65;51.64;95604.19;5052436;28;20442;-65
2021/04/22 06:34:12;;;;;;;18.23;11.13;;;;;;;11.71;51.17;95602.44;5052791;28;20518;-65
2021/04/22 06:36:39;;;;;;;17.90;11.13;;;;;;;11.81;50.31;95602.53;5050896;28;20439;-65
2021/04/22 06:39:06;;;;;;;21.43;13.40;;;;;;;12.00;50.48;95601.19;5052542;28;20505;-65
2021/04/22 06:41:33;;;;;;;29.73;15.27;;;;;;;12.16;50.72;95610.81;5052421;28;20804;-65
2021/04/22 06:43:59;;;;;;;27.43;17.40;;;;;;;12.20;51.28;95598.78;5052226;28;20983;-66
2021/04/22 06:46:26;;;;;;;27.13;18.00;;;;;;;12.46;51.09;95600.59;5052951;28;20442;-66
2021/04/22 06:48:52;;;;;;;27.93;19.77;;;;;;;12.54;50.10;95588.81;5052230;28;20453;-66
2021/04/22 06:51:19;;;;;;;34.37;18.90;;;;;;;12.48;51.08;95601.13;5052471;28;20446;-65
2021/04/22 06:53:45;;;;;;;33.10;18.70;;;;;;;12.68;49.96;95598.66;5052184;28;20504;-65
2021/04/22 06:56:13;;;;;;;26.07;17.47;;;;;;;12.74;49.90;95608.19;5052678;28;20493;-66
2021/04/22 06:58:39;;;;;;;28.07;17.87;;;;;;;12.82;49.84;95599.84;5051525;28;20442;-66
2021/04/22 07:01:06;;;;;;;28.40;16.13;;;;;;;12.83;49.72;95601.41;5052600;28;20446;-66
2021/04/22 07:03:32;;;;;;;21.37;14.63;;;;;;;12.83;49.54;95601.41;5052403;28;20911;-64
2021/04/22 07:05:58;;;;;;;18.53;14.10;;;;;;;13.03;49.40;95609.50;5052937;28;20554;-66
2021/04/22 07:08:25;;;;;;;16.93;12.00;;;;;;;12.96;49.45;95606.25;5051683;28;20434;-67
2021/04/22 07:10:51;;;;;;;21.33;12.27;;;;;;;13.00;48.13;95606.53;5051810;28;20478;-65
2021/04/22 07:13:17;;;;;;;18.97;11.80;;;;;;;13.01;48.25;95606.28;5050864;28;20445;-66
2021/04/22 07:15:44;;;;;;;46.07;36.83;;;;;;;13.15;48.28;95615.38;5052106;28;20443;-70
2021/04/22 07:18:11;;;;;;;36.20;25.63;;;;;;;13.49;48.55;95604.50;5051236;28;20921;-66
2021/04/22 07:20:39;;;;;;;26.17;19.00;;;;;;;13.69;48.13;95604.59;5051876;28;20984;-66
2021/04/22 07:23:05;;;;;;;16.33;11.17;;;;;;;13.49;45.96;95580.78;5050697;28;20573;-66
2021/04/22 07:25:34;;;;;;;18.73;11.60;;;;;;;13.46;46.84;95607.66;5049297;28;20431;-66
2021/04/22 07:28:04;;;;;;;17.37;12.33;;;;;;;13.71;47.24;95603.28;5051757;28;20876;-67
2021/04/22 07:30:31;;;;;;;20.57;11.77;;;;;;;13.89;47.37;95605.47;5052019;28;20449;-66
2021/04/22 07:32:57;;;;;;;16.80;12.37;;;;;;;13.95;47.60;95604.44;5051084;28;20434;-68
2021/04/22 07:35:24;;;;;;;16.13;11.93;;;;;;;14.05;47.07;95608.97;5051442;28;20520;-66
2021/04/22 07:37:50;;;;;;;17.03;11.93;;;;;;;14.09;46.16;95602.88;5051175;28;20443;-66
2021/04/22 07:40:20;;;;;;;24.93;13.43;;;;;;;14.19;46.96;95604.78;5051710;28;20873;-66
2021/04/22 07:42:47;;;;;;;16.37;10.83;;;;;;;14.30;46.04;95609.03;5051137;28;20486;-66
2021/04/22 07:45:16;;;;;;;14.47;11.27;;;;;;;14.57;45.46;95596.41;5054961;28;20431;-68
2021/04/22 07:47:43;;;;;;;16.20;11.60;;;;;;;14.36;44.92;95604.56;5051508;28;20469;-67
2021/04/22 07:50:12;;;;;;;17.00;10.93;;;;;;;14.43;45.39;95605.09;5051549;28;20995;-67
2021/04/22 07:52:40;;;;;;;15.30;10.93;;;;;;;14.68;45.57;95592.75;5051227;28;20423;-66
2021/04/22 07:55:08;;;;;;;16.67;10.97;;;;;;;14.75;45.40;95598.53;5051496;28;20455;-66
2021/04/22 07:57:35;;;;;;;16.67;11.10;;;;;;;14.68;45.14;95607.75;5051568;28;20446;-69
2021/04/22 08:00:06;;;;;;;18.03;11.67;;;;;;;14.76;45.53;95584.28;5051425;28;21149;-66
2021/04/22 08:02:37;;;;;;;21.13;12.80;;;;;;;14.92;46.12;95588.50;5050930;28;20490;-67
2021/04/22 08:05:05;;;;;;;19.67;12.90;;;;;;;15.06;45.17;95589.56;5051600;28;20820;-65
2021/04/22 08:07:31;;;;;;;19.13;12.93;;;;;;;15.05;45.52;95582.66;5050455;28;20996;-66
2021/04/22 08:09:57;;;;;;;20.73;12.07;;;;;;;15.27;44.39;95578.97;5050899;28;20466;-66
2021/04/22 08:12:24;;;;;;;16.53;13.10;;;;;;;15.49;43.38;95574.19;5050644;28;20534;-65
2021/04/22 08:14:53;;;;;;;19.80;13.50;;;;;;;15.57;44.32;95568.31;5051591;28;20431;-65
2021/04/22 08:17:19;;;;;;;19.77;13.17;;;;;;;15.83;42.68;95569.81;5051560;28;20454;-66
2021/04/22 08:19:47;;;;;;;19.83;12.90;;;;;;;15.60;41.65;95568.56;5051567;28;20789;-65
2021/04/22 08:22:13;;;;;;;18.93;11.87;;;;;;;15.89;41.93;95563.44;5050986;28;20443;-66
2021/04/22 08:24:39;;;;;;;15.90;12.40;;;;;;;15.95;42.08;95559.69;5050889;28;20445;-66
2021/04/22 08:27:06;;;;;;;21.33;13.40;;;;;;;15.95;41.63;95562.34;5050544;28;20443;-65
2021/04/22 08:29:32;;;;;;;16.77;12.30;;;;;;;16.05;40.98;95564.94;5051033;28;20461;-65
2021/04/22 08:31:59;;;;;;;19.20;12.60;;;;;;;16.16;39.96;95561.97;5050646;28;20896;-65
2021/04/22 08:34:27;;;;;;;19.13;12.47;;;;;;;16.28;41.56;95563.50;5050696;28;20446;-65
2021/04/22 08:36:53;;;;;;;19.57;13.57;;;;;;;16.40;42.16;95556.81;5050115;28;20454;-67
2021/04/22 08:39:20;;;;;;;17.20;12.70;;;;;;;16.62;41.26;95554.56;5050719;28;20987;-67
2021/04/22 08:41:46;;;;;;;20.83;12.80;;;;;;;16.78;41.71;95553.34;5050643;28;20827;-66
2021/04/22 08:44:13;;;;;;;16.80;12.40;;;;;;;16.77;40.61;95546.47;5050293;28;20466;-67
2021/04/22 08:46:40;;;;;;;20.50;13.90;;;;;;;16.70;41.21;95546.00;5049891;28;20443;-66
2021/04/22 08:49:07;;;;;;;20.20;12.37;;;;;;;17.09;41.15;95549.38;5050921;28;20439;-65
2021/04/22 08:51:34;;;;;;;15.17;11.13;;;;;;;17.28;40.61;95540.72;5050392;28;20510;-66
2021/04/22 08:54:03;;;;;;;21.47;10.60;;;;;;;17.63;40.20;95543.75;5050121;28;20451;-65
2021/04/22 08:56:33;;;;;;;20.20;12.17;;;;;;;17.93;39.52;95546.06;5050203;28;20979;-66
2021/04/22 08:59:00;;;;;;;21.00;12.00;;;;;;;18.01;38.76;95539.31;5049801;28;20453;-66
2021/04/22 09:01:27;;;;;;;19.20;11.27;;;;;;;18.06;38.94;95531.28;5050197;28;20427;-67
2021/04/22 09:03:53;;;;;;;15.20;9.67;;;;;;;18.15;38.67;95527.72;5049665;28;20471;-67
2021/04/22 09:06:21;;;;;;;16.80;9.37;;;;;;;18.15;38.84;95530.38;5051254;28;20434;-66
2021/04/22 09:08:52;;;;;;;19.07;10.00;;;;;;;18.39;39.11;95518.88;5052591;28;20453;-67
2021/04/22 09:11:24;;;;;;;20.70;8.60;;;;;;;18.50;36.48;95517.69;5049862;28;20467;-67
2021/04/22 09:13:52;;;;;;;13.30;8.00;;;;;;;18.21;36.24;95523.91;5049147;28;20530;-66
2021/04/22 09:16:27;;;;;;;13.90;8.17;;;;;;;18.14;36.07;95523.47;5050001;28;20442;-67
2021/04/22 09:18:57;;;;;;;83.27;65.77;;;;;;;18.53;39.19;95515.22;5049459;28;20450;-65
2021/04/22 09:21:36;;;;;;;11.93;8.90;;;;;;;18.79;36.47;95500.47;5049640;28;20475;-66
2021/04/22 09:24:07;;;;;;;14.77;10.70;;;;;;;18.94;38.49;95494.88;5048301;28;20488;-66
2021/04/22 09:26:41;;;;;;;20.57;8.80;;;;;;;18.94;36.07;95473.63;5052127;28;20449;-64
2021/04/22 09:29:09;;;;;;;18.03;9.17;;;;;;;18.94;36.01;95484.25;5069964;28;20582;-66
2021/04/22 09:31:36;;;;;;;14.30;7.87;;;;;;;18.89;34.99;95481.69;5062429;28;20445;-67
2021/04/22 09:34:16;;;;;;;13.07;7.00;;;;;;;18.80;33.17;95478.13;5059302;28;20450;-66
2021/04/22 09:36:53;;;;;;;8.57;6.63;;;;;;;19.34;33.90;95481.97;5049312;28;20442;-67
2021/04/22 09:39:28;;;;;;;11.17;6.20;;;;;;;19.56;32.84;95474.06;5050355;28;20433;-66
2021/04/22 09:41:58;;;;;;;11.47;6.83;;;;;;;19.71;32.60;95471.06;5049629;28;20834;-67
2021/04/22 09:44:27;;;;;;;10.57;6.50;;;;;;;20.06;31.90;95470.31;5065836;28;20863;-68
2021/04/22 09:47:10;;;;;;;8.10;5.07;;;;;;;20.23;29.54;95457.19;5068894;28;20443;-66
2021/04/22 09:49:52;;;;;;;6.30;4.73;;;;;;;20.72;28.59;95454.38;5070026;28;20414;-66
2021/04/22 09:52:21;;;;;;;9.73;5.40;;;;;;;20.63;30.57;95445.56;5069471;28;20460;-67
2021/04/22 09:54:52;;;;;;;5.63;2.70;;;;;;;19.87;26.08;95441.19;5070051;28;20448;-67
2021/04/22 09:57:25;;;;;;;4.47;2.87;;;;;;;18.72;26.24;95454.91;5069141;28;20529;-66
2021/04/22 09:59:53;;;;;;;3.50;2.00;;;;;;;19.28;24.86;95457.31;5069745;28;20559;-66
2021/04/22 10:02:20;;;;;;;3.83;2.13;;;;;;;19.94;24.58;95446.13;5069437;28;20457;-65
2021/04/22 10:04:49;;;;;;;1.40;1.27;;;;;;;19.85;22.44;95445.25;5069550;28;20955;-65
2021/04/22 10:07:26;;;;;;;2.80;1.80;;;;;;;19.86;21.88;95442.31;5068969;28;20474;-67
2021/04/22 10:10:01;;;;;;;2.30;1.53;;;;;;;19.14;22.16;95441.38;5068104;28;20522;-66
2021/04/22 10:12:30;;;;;;;1.97;1.30;;;;;;;19.41;22.61;95439.81;5069163;28;20876;-67
2021/04/22 10:15:14;;;;;;;2.87;1.53;;;;;;;19.74;22.78;95427.97;5069619;28;20438;-66
2021/04/22 10:17:41;;;;;;;3.07;1.60;;;;;;;20.88;22.79;95420.94;5068863;28;21062;-67
2021/04/22 10:20:10;;;;;;;1.80;1.70;;;;;;;20.01;21.43;95423.34;5060193;28;20435;-68
2021/04/22 10:22:39;;;;;;;1.90;1.40;;;;;;;19.98;21.50;95433.81;5048750;28;20518;-68
2021/04/22 10:25:11;;;;;;;3.17;1.77;;;;;;;20.28;22.43;95417.13;5049388;28;20457;-66
2021/04/22 10:27:39;;;;;;;3.27;1.40;;;;;;;19.75;21.74;95424.19;5049973;28;20496;-66
2021/04/22 10:30:12;;;;;;;3.33;1.50;;;;;;;20.44;21.15;95415.66;5051614;28;20439;-67
2021/04/22 10:32:41;;;;;;;2.03;1.60;;;;;;;21.00;20.45;95413.16;5048980;28;20874;-66
2021/04/22 10:35:16;;;;;;;1.83;1.70;;;;;;;21.41;20.51;95401.34;5048719;28;20439;-66
2021/04/22 10:37:45;;;;;;;6.10;1.73;;;;;;;21.10;20.24;95359.59;5048504;28;20434;-66
2021/04/22 10:40:15;;;;;;;4.00;1.30;;;;;;;20.49;20.91;95402.22;5049335;28;20207;-70
2021/04/22 10:42:42;;;;;;;2.33;1.60;;;;;;;20.98;20.21;95396.66;5048803;28;20621;-67
2021/04/22 10:45:12;;;;;;;2.30;1.30;;;;;;;20.85;20.92;95394.13;5052557;28;20200;-66
2021/04/22 10:47:38;;;;;;;2.13;1.70;;;;;;;20.23;20.52;95398.63;5052118;28;20478;-66
2021/04/22 10:50:12;;;;;;;2.10;1.40;;;;;;;20.24;21.15;95400.19;5052397;28;20431;-67
2021/04/22 10:52:48;;;;;;;2.30;1.10;;;;;;;20.16;19.00;95403.56;5051967;28;20249;-68
2021/04/22 10:55:15;;;;;;;2.03;1.30;;;;;;;20.75;19.18;95405.81;5052762;28;20509;-66
2021/04/22 10:57:42;;;;;;;1.70;1.50;;;;;;;20.14;19.68;95403.09;5052549;28;20514;-68
2021/04/22 11:00:12;;;;;;;3.80;1.57;;;;;;;20.54;20.48;95380.03;5052584;28;20446;-68
2021/04/22 11:02:50;;;;;;;4.60;1.60;;;;;;;20.66;20.44;95381.03;5051479;28;20471;-66
2021/04/22 11:05:27;;;;;;;1.83;1.40;;;;;;;20.53;20.52;95391.78;5052456;28;20442;-67
2021/04/22 11:07:57;;;;;;;2.30;1.47;;;;;;;20.82;20.78;95386.75;5052099;28;20517;-69
2021/04/22 11:10:45;;;;;;;3.70;1.50;;;;;;;19.98;21.52;95391.25;5052384;28;20232;-67
2021/04/22 11:13:14;;;;;;;5.70;1.40;;;;;;;19.96;22.09;95377.44;5052019;28;20442;-68
2021/04/22 11:15:57;;;;;;;2.20;1.50;;;;;;;20.01;22.41;95386.09;5052166;28;20442;-67
2021/04/22 11:18:34;;;;;;;2.93;2.00;;;;;;;20.30;21.69;95388.34;5051524;28;20565;-68
2021/04/22 11:21:01;;;;;;;1.20;1.10;;;;;;;18.82;21.81;95395.53;5068902;28;20430;-66
2021/04/22 11:23:39;;;;;;;3.40;1.40;;;;;;;19.66;22.84;95376.28;5072399;28;21007;-67
2021/04/22 11:26:21;;;;;;;1.63;1.50;;;;;;;20.42;22.22;95358.53;5072499;28;20588;-67
2021/04/22 11:28:49;;;;;;;1.67;1.43;;;;;;;20.18;22.33;95353.53;5071433;28;20895;-67